Time;durP1;ratioP1;P1;durP2;ratioP2;P2;SDS_P1;SDS_P2;PMS_P1;PMS_P2;Temp;Humidity;BMP_temperature;BMP_pressure;BME280_temperature;BME280_humidity;BME280_pressure;Samples;Min_cycle;Max_cycle;Signal;HPM_P1;HPM_P2
2021/07/22 00:02:02;;;;;;;13.02;8.02;;;18.50;99.90;;;;;;12490675;28;20060;-40
2021/07/22 00:08:11;;;;;;;13.82;8.45;;;18.50;99.90;;;;;;12494187;28;20095;-40
2021/07/22 00:14:14;;;;;;;15.40;8.70;;;18.50;99.90;;;;;;12488854;28;20061;-41
2021/07/22 00:20:16;;;;;;;11.73;8.83;;;18.40;99.90;;;;;;12494267;28;20057;-40
2021/07/22 00:26:18;;;;;;;12.90;8.43;;;18.40;99.90;;;;;;12503741;28;20053;-43
2021/07/22 00:32:20;;;;;;;12.82;8.00;;;18.30;99.90;;;;;;12501440;28;20068;-43
2021/07/22 00:38:21;;;;;;;15.63;9.32;;;18.30;99.90;;;;;;12500861;28;20079;-41
2021/07/22 00:44:23;;;;;;;15.27;8.80;;;18.30;99.90;;;;;;12501190;28;20098;-41
2021/07/22 00:50:25;;;;;;;15.40;9.05;;;18.30;99.90;;;;;;12498531;28;20124;-41
2021/07/22 00:56:27;;;;;;;12.82;8.77;;;18.20;99.90;;;;;;12499988;28;20045;-41
2021/07/22 01:02:29;;;;;;;14.55;9.40;;;18.20;99.90;;;;;;12497559;28;20141;-41
2021/07/22 01:08:31;;;;;;;13.73;9.10;;;18.20;99.90;;;;;;12495386;28;20064;-41
2021/07/22 01:14:33;;;;;;;12.63;8.85;;;18.20;99.90;;;;;;12495854;28;20061;-41
2021/07/22 01:20:34;;;;;;;14.80;8.75;;;18.20;99.90;;;;;;12498618;28;20049;-43
2021/07/22 01:26:36;;;;;;;11.80;8.48;;;18.00;99.90;;;;;;12499014;28;20105;-41
2021/07/22 01:32:39;;;;;;;13.00;8.60;;;17.80;99.90;;;;;;12498440;28;20447;-40
2021/07/22 01:38:41;;;;;;;11.82;8.85;;;17.90;99.90;;;;;;12494572;28;20179;-40
2021/07/22 01:44:43;;;;;;;13.20;8.85;;;17.70;99.90;;;;;;12495703;28;20069;-41
2021/07/22 01:50:44;;;;;;;14.82;9.95;;;17.70;99.90;;;;;;12494906;28;20091;-42
2021/07/22 01:56:46;;;;;;;16.10;9.13;;;17.70;99.90;;;;;;12500714;28;20049;-40
2021/07/22 02:02:48;;;;;;;13.63;8.73;;;17.70;99.90;;;;;;12492742;28;20052;-40
2021/07/22 02:08:50;;;;;;;13.40;9.23;;;17.50;99.90;;;;;;12490762;28;20045;-41
2021/07/22 02:14:52;;;;;;;15.63;9.02;;;17.40;99.90;;;;;;12491385;28;20105;-40
2021/07/22 02:20:54;;;;;;;11.65;9.00;;;17.40;99.90;;;;;;12494682;28;20049;-41
2021/07/22 02:26:56;;;;;;;13.02;8.85;;;17.40;99.90;;;;;;12492246;28;20072;-41
2021/07/22 02:32:58;;;;;;;14.70;8.77;;;17.40;99.90;;;;;;12493843;28;20049;-41
2021/07/22 02:39:00;;;;;;;13.93;9.10;;;17.40;99.90;;;;;;12493194;28;20053;-40
2021/07/22 02:45:04;;;;;;;15.43;8.75;;;17.50;99.90;;;;;;12492811;28;20097;-41
2021/07/22 02:51:07;;;;;;;;;;;17.50;99.90;;;;;;12492546;28;20102;-41
2021/07/22 02:57:08;;;;;;;13.90;9.57;;;17.60;99.90;;;;;;12494627;28;20335;-40
2021/07/22 03:03:10;;;;;;;12.38;8.82;;;17.50;99.90;;;;;;12493573;28;20053;-41
2021/07/22 03:09:12;;;;;;;15.32;9.43;;;17.50;99.90;;;;;;12491081;28;20140;-42
2021/07/22 03:15:14;;;;;;;13.77;9.48;;;17.40;99.90;;;;;;12492623;28;20101;-40
2021/07/22 03:21:16;;;;;;;14.48;8.88;;;17.40;99.90;;;;;;12493496;28;20099;-41
2021/07/22 03:27:17;;;;;;;14.32;9.25;;;17.40;99.90;;;;;;12492164;28;20050;-41
2021/07/22 03:33:20;;;;;;;13.10;8.75;;;17.30;99.90;;;;;;12490068;28;20098;-41
2021/07/22 03:39:22;;;;;;;19.65;9.15;;;17.30;99.90;;;;;;12490494;28;20045;-41
2021/07/22 03:45:24;;;;;;;12.57;8.50;;;17.40;99.90;;;;;;12488610;28;20041;-42
2021/07/22 03:51:25;;;;;;;13.82;9.30;;;17.30;99.90;;;;;;12489092;28;20106;-41
2021/07/22 03:57:27;;;;;;;15.57;9.45;;;17.20;99.90;;;;;;12497644;28;20044;-41
2021/07/22 04:03:35;;;;;;;13.98;8.73;;;17.20;99.90;;;;;;12588319;28;20496;-40
2021/07/22 04:09:38;;;;;;;12.63;8.65;;;17.30;99.90;;;;;;12591802;28;20110;-42
2021/07/22 04:15:40;;;;;;;15.15;9.10;;;17.20;99.90;;;;;;12584103;28;20097;-41
2021/07/22 04:21:42;;;;;;;14.48;9.38;;;17.10;99.90;;;;;;12589393;28;20045;-41
2021/07/22 04:27:44;;;;;;;17.15;9.95;;;17.00;99.90;;;;;;12593294;28;20953;-41
2021/07/22 04:33:47;;;;;;;14.40;9.38;;;17.00;99.90;;;;;;12590673;28;20611;-40
2021/07/22 04:39:49;;;;;;;14.33;9.07;;;17.00;99.90;;;;;;12588546;28;20048;-42
2021/07/22 04:45:50;;;;;;;16.77;9.98;;;17.00;99.90;;;;;;12589062;28;20060;-40
2021/07/22 04:51:52;;;;;;;14.05;9.73;;;17.00;99.90;;;;;;12587335;28;20055;-44
2021/07/22 04:58:01;;;;;;;14.68;9.73;;;17.20;99.90;;;;;;12590747;28;20052;-42
2021/07/22 05:04:02;;;;;;;16.35;10.20;;;17.30;99.90;;;;;;12588370;28;20838;-40
2021/07/22 05:10:05;;;;;;;16.88;10.32;;;17.40;99.90;;;;;;12593444;28;20048;-41
2021/07/22 05:16:10;;;;;;;16.45;10.10;;;17.50;99.90;;;;;;12601595;28;20872;-41
2021/07/22 05:22:12;;;;;;;16.02;10.50;;;17.60;99.90;;;;;;12597225;28;20055;-41
2021/07/22 05:28:14;;;;;;;14.48;10.68;;;17.70;99.90;;;;;;12594303;28;20080;-40
2021/07/22 05:34:18;;;;;;;14.95;10.25;;;17.80;99.90;;;;;;12596186;28;20453;-41
2021/07/22 05:40:20;;;;;;;18.75;11.40;;;17.70;99.90;;;;;;12596910;28;20407;-41
2021/07/22 05:46:22;;;;;;;18.58;11.80;;;17.80;99.90;;;;;;12596107;28;20056;-40
2021/07/22 05:52:24;;;;;;;16.90;11.05;;;17.90;99.90;;;;;;12595868;28;20090;-42
2021/07/22 05:58:26;;;;;;;20.17;12.38;;;18.00;99.90;;;;;;12597978;28;20060;-40
2021/07/22 06:04:33;;;;;;;18.30;12.25;;;18.10;99.90;;;;;;12590865;28;20056;-41
2021/07/22 06:10:37;;;;;;;16.80;11.18;;;18.00;99.90;;;;;;12595579;28;20411;-40
2021/07/22 06:16:38;;;;;;;19.67;12.23;;;18.00;99.90;;;;;;12593505;28;20718;-40
2021/07/22 06:22:44;;;;;;;16.73;12.20;;;18.10;99.90;;;;;;12592748;28;20405;-41
2021/07/22 06:28:45;;;;;;;19.75;14.48;;;18.00;99.90;;;;;;12594411;28;20052;-41
2021/07/22 06:34:47;;;;;;;19.98;14.95;;;17.90;99.90;;;;;;12595985;28;20109;-41
2021/07/22 06:40:49;;;;;;;23.83;15.23;;;17.90;99.90;;;;;;12589709;28;20110;-40
2021/07/22 06:46:51;;;;;;;21.98;15.85;;;17.70;99.90;;;;;;12593659;28;21166;-41
2021/07/22 06:52:52;;;;;;;21.85;16.42;;;17.60;99.90;;;;;;12591104;28;20116;-43
2021/07/22 06:58:54;;;;;;;23.30;15.93;;;17.70;99.90;;;;;;12589728;28;20059;-41
2021/07/22 07:04:56;;;;;;;21.15;14.90;;;17.60;99.90;;;;;;12593472;28;20048;-42
2021/07/22 07:10:58;;;;;;;21.33;15.75;;;17.50;99.90;;;;;;12589548;28;20426;-40
2021/07/22 07:17:00;;;;;;;22.10;15.23;;;17.30;99.90;;;;;;12590099;28;20158;-40
2021/07/22 07:23:02;;;;;;;27.10;14.80;;;17.20;99.90;;;;;;12592752;28;20040;-41
2021/07/22 07:29:03;;;;;;;20.55;15.18;;;17.10;99.90;;;;;;12583217;28;20094;-41
2021/07/22 07:35:05;;;;;;;23.95;16.00;;;17.00;99.90;;;;;;12589754;28;20045;-42
2021/07/22 07:41:07;;;;;;;18.65;14.43;;;16.90;99.90;;;;;;12587934;28;20439;-41
2021/07/22 07:47:09;;;;;;;21.13;14.57;;;16.90;99.90;;;;;;12588559;28;20044;-40
2021/07/22 07:53:13;;;;;;;22.42;15.35;;;16.90;99.90;;;;;;12590742;28;20506;-41
2021/07/22 07:59:16;;;;;;;24.13;14.48;;;17.10;99.90;;;;;;12571224;28;20060;-40
2021/07/22 08:05:17;;;;;;;18.55;14.07;;;17.20;99.90;;;;;;12593162;28;20049;-40
2021/07/22 08:11:19;;;;;;;23.08;14.68;;;17.30;99.90;;;;;;12590393;28;20565;-41
2021/07/22 08:17:25;;;;;;;21.42;13.95;;;17.30;99.90;;;;;;12587415;28;20044;-40
2021/07/22 08:23:27;;;;;;;20.38;13.63;;;17.50;99.90;;;;;;12589504;28;20060;-41
2021/07/22 08:29:28;;;;;;;22.88;15.48;;;17.70;99.90;;;;;;12568865;28;20056;-40
2021/07/22 08:35:30;;;;;;;23.13;14.68;;;17.80;99.90;;;;;;12582810;28;20056;-41
2021/07/22 08:41:32;;;;;;;20.13;15.02;;;17.90;99.90;;;;;;12585260;28;20071;-41
2021/07/22 08:47:36;;;;;;;21.42;13.98;;;17.70;99.90;;;;;;12595124;28;20588;-41
2021/07/22 08:53:38;;;;;;;;;;;17.90;99.90;;;;;;12593351;28;20817;-43
2021/07/22 08:59:40;;;;;;;25.50;13.98;;;17.90;99.90;;;;;;12597169;28;20688;-43
2021/07/22 09:05:42;;;;;;;20.08;14.27;;;18.10;99.90;;;;;;12596424;28;20048;-45
2021/07/22 09:11:54;;;;;;;21.55;15.85;;;18.30;99.90;;;;;;12597060;28;20723;-43
2021/07/22 09:17:56;;;;;;;20.30;14.30;;;18.40;99.90;;;;;;12598956;28;20073;-43
2021/07/22 09:24:06;;;;;;;22.70;13.98;;;18.30;99.90;;;;;;12595908;28;20048;-40
2021/07/22 09:30:15;;;;;;;19.27;13.88;;;18.40;99.90;;;;;;12597033;28;20044;-40
2021/07/22 09:36:20;;;;;;;16.60;13.02;;;18.70;99.90;;;;;;12596503;28;20540;-42
2021/07/22 09:42:21;;;;;;;21.55;13.73;;;19.30;99.90;;;;;;12591031;28;20054;-43
2021/07/22 09:48:23;;;;;;;17.77;12.80;;;19.40;99.90;;;;;;12597308;28;20127;-43
2021/07/22 09:54:33;;;;;;;18.13;12.68;;;19.80;99.90;;;;;;12592279;28;20080;-41
2021/07/22 10:00:37;;;;;;;19.02;12.43;;;20.30;99.90;;;;;;12590156;28;20056;-41
2021/07/22 10:06:43;;;;;;;21.25;13.18;;;20.30;99.90;;;;;;12592007;28;20121;-42
2021/07/22 10:12:54;;;;;;;16.33;12.05;;;21.00;99.90;;;;;;12596865;28;20192;-41
2021/07/22 10:19:00;;;;;;;19.40;12.50;;;20.90;99.90;;;;;;12595012;28;20048;-40
2021/07/22 10:25:02;;;;;;;17.85;12.93;;;21.30;99.90;;;;;;12594019;28;20062;-41
2021/07/22 10:31:08;;;;;;;18.55;13.23;;;21.50;99.90;;;;;;12580539;28;20598;-42
2021/07/22 10:37:10;;;;;;;20.15;12.40;;;21.40;99.90;;;;;;12590472;28;20369;-41
2021/07/22 10:43:41;;;;;;;17.75;11.88;;;21.70;99.90;;;;;;12589408;28;20060;-41
2021/07/22 10:49:43;;;;;;;20.10;13.85;;;22.10;99.90;;;;;;12589043;28;20108;-41
2021/07/22 10:55:46;;;;;;;16.55;12.10;;;21.80;99.90;;;;;;12590267;28;20358;-41
2021/07/22 11:01:49;;;;;;;18.48;13.20;;;22.50;99.90;;;;;;12589497;28;20147;-42
2021/07/22 11:08:25;;;;;;;16.80;11.50;;;22.30;99.90;;;;;;12590729;28;20044;-44
2021/07/22 11:14:33;;;;;;;17.83;11.93;;;22.80;99.90;;;;;;12590075;28;20116;-41
2021/07/22 11:20:35;;;;;;;16.92;11.77;;;23.10;99.90;;;;;;12588803;28;20048;-41
2021/07/22 11:26:39;;;;;;;18.03;11.87;;;23.30;99.90;;;;;;12588321;28;20052;-41
2021/07/22 11:32:46;;;;;;;18.13;13.10;;;23.20;99.90;;;;;;12589392;28;20571;-42
2021/07/22 11:38:51;;;;;;;19.65;12.82;;;23.70;99.90;;;;;;12590622;28;20053;-41
2021/07/22 11:45:04;;;;;;;14.85;11.68;;;24.20;99.90;;;;;;12590586;28;20105;-41
2021/07/22 11:51:12;;;;;;;18.20;12.23;;;23.90;99.90;;;;;;12587370;28;20392;-41
2021/07/22 11:57:14;;;;;;;17.65;11.18;;;22.90;99.90;;;;;;12589102;28;20471;-41
2021/07/22 12:03:22;;;;;;;15.48;11.63;;;21.90;99.90;;;;;;12586286;28;20050;-42
2021/07/22 12:09:24;;;;;;;16.45;12.00;;;22.10;99.90;;;;;;12589744;28;20056;-41
2021/07/22 12:15:26;;;;;;;13.98;10.48;;;21.40;99.90;;;;;;12589067;28;20484;-42
2021/07/22 12:21:29;;;;;;;20.63;12.25;;;22.00;99.90;;;;;;12591960;28;20048;-43
2021/07/22 12:27:39;;;;;;;16.45;11.50;;;22.70;99.90;;;;;;12600622;28;20714;-40
2021/07/22 12:33:42;;;;;;;15.77;10.93;;;23.00;99.90;;;;;;12596352;28;20113;-42
2021/07/22 12:39:44;;;;;;;16.43;11.10;;;22.60;99.90;;;;;;12598456;28;20457;-41
2021/07/22 12:45:48;;;;;;;16.45;9.85;;;22.30;99.90;;;;;;12600706;28;20052;-42
2021/07/22 12:52:01;;;;;;;13.35;9.23;;;22.30;99.90;;;;;;12596799;28;20052;-42
2021/07/22 12:58:03;;;;;;;16.83;9.68;;;23.00;99.90;;;;;;12596612;28;20151;-43
2021/07/22 13:04:05;;;;;;;14.20;10.23;;;23.20;99.90;;;;;;12598180;28;20385;-41
2021/07/22 13:10:07;;;;;;;15.55;9.63;;;23.80;99.90;;;;;;12597298;28;20052;-43
2021/07/22 13:16:10;;;;;;;13.83;9.43;;;23.80;99.90;;;;;;12599887;28;20123;-42
2021/07/22 13:22:11;;;;;;;16.95;10.35;;;23.60;99.90;;;;;;12595400;28;20040;-42
2021/07/22 13:28:14;;;;;;;14.32;10.38;;;23.10;99.90;;;;;;12596201;28;20482;-43
2021/07/22 13:34:16;;;;;;;15.15;10.68;;;23.50;99.90;;;;;;12594271;28;20049;-42
2021/07/22 13:40:21;;;;;;;15.25;9.98;;;23.80;99.90;;;;;;12589359;28;20101;-41
2021/07/22 13:46:23;;;;;;;13.00;9.57;;;24.10;99.90;;;;;;12598403;28;20094;-41
2021/07/22 13:52:30;;;;;;;13.68;10.23;;;23.70;99.90;;;;;;12596368;28;20055;-41
2021/07/22 13:58:32;;;;;;;13.18;9.65;;;23.10;99.90;;;;;;12593841;28;20060;-42
2021/07/22 14:04:35;;;;;;;15.00;9.93;;;22.60;99.90;;;;;;12596979;28;20101;-42
2021/07/22 14:10:38;;;;;;;14.48;10.38;;;22.60;99.90;;;;;;12591420;28;20077;-41
2021/07/22 14:16:39;;;;;;;12.45;9.13;;;23.50;99.90;;;;;;12593132;28;20071;-44
2021/07/22 14:22:54;;;;;;;12.70;8.27;;;23.50;99.90;;;;;;12589554;28;20044;-42
2021/07/22 14:28:56;;;;;;;14.38;9.73;;;23.90;99.90;;;;;;12590992;28;20530;-43
2021/07/22 14:34:58;;;;;;;13.20;10.35;;;24.40;99.90;;;;;;12593084;28;20105;-41
2021/07/22 14:41:00;;;;;;;12.68;9.13;;;24.60;99.90;;;;;;12590144;28;20044;-41
2021/07/22 14:47:02;;;;;;;10.47;8.27;;;24.80;99.90;;;;;;12591507;28;20044;-41
2021/07/22 14:53:04;;;;;;;12.65;8.57;;;24.00;99.90;;;;;;12589859;28;20052;-41
2021/07/22 14:59:06;;;;;;;11.93;8.73;;;24.20;99.90;;;;;;12593885;28;20109;-41
2021/07/22 15:05:08;;;;;;;13.45;8.85;;;24.50;99.90;;;;;;12589786;28;20052;-42
2021/07/22 15:11:10;;;;;;;11.75;8.30;;;24.50;99.90;;;;;;12591967;28;20473;-42
2021/07/22 15:17:11;;;;;;;16.80;9.20;;;24.50;99.90;;;;;;12589935;28;20100;-41
2021/07/22 15:23:13;;;;;;;13.20;8.57;;;24.70;99.90;;;;;;12589613;28;20056;-45
2021/07/22 15:29:16;;;;;;;12.73;8.65;;;24.60;99.90;;;;;;12584757;28;20044;-41
2021/07/22 15:35:17;;;;;;;13.85;8.68;;;24.60;99.90;;;;;;12586753;28;20147;-42
2021/07/22 15:41:19;;;;;;;14.02;8.98;;;24.50;99.90;;;;;;12587398;28;20097;-43
2021/07/22 15:47:21;;;;;;;15.55;8.43;;;24.80;99.90;;;;;;12586231;28;20044;-42
2021/07/22 15:53:23;;;;;;;12.77;8.52;;;24.80;99.90;;;;;;12589347;28;20495;-41
2021/07/22 15:59:24;;;;;;;10.07;7.63;;;24.70;99.90;;;;;;12585515;28;20133;-41
2021/07/22 16:05:27;;;;;;;13.30;9.15;;;24.40;99.90;;;;;;12594616;28;20429;-41
2021/07/22 16:11:29;;;;;;;12.80;7.90;;;24.00;99.90;;;;;;12584259;28;20060;-41
2021/07/22 16:17:31;;;;;;;16.52;8.98;;;23.70;99.90;;;;;;12587686;28;20064;-40
2021/07/22 16:23:34;;;;;;;12.07;7.53;;;23.70;99.90;;;;;;12587661;28;20449;-41
2021/07/22 16:29:36;;;;;;;11.02;7.65;;;24.00;99.90;;;;;;12583112;28;20044;-41
2021/07/22 16:35:39;;;;;;;12.57;7.40;;;23.90;99.90;;;;;;12586784;28;20048;-41
2021/07/22 16:41:43;;;;;;;11.53;7.90;;;23.70;99.90;;;;;;12586693;28;20044;-40
2021/07/22 16:47:45;;;;;;;9.82;6.80;;;23.30;99.90;;;;;;12587596;28;20093;-42
2021/07/22 16:53:48;;;;;;;10.20;7.40;;;23.20;99.90;;;;;;12585644;28;20052;-42
2021/07/22 16:59:50;;;;;;;10.05;6.20;;;23.50;99.90;;;;;;12589875;28;20056;-41
2021/07/22 17:05:53;;;;;;;11.07;6.97;;;23.20;99.90;;;;;;12594367;28;20052;-40
2021/07/22 17:11:55;;;;;;;11.27;6.22;;;22.70;99.90;;;;;;12592000;28;20131;-41
2021/07/22 17:17:57;;;;;;;9.88;6.28;;;22.90;99.90;;;;;;12591931;28;20105;-41
2021/07/22 17:23:59;;;;;;;7.93;5.80;;;23.30;99.90;;;;;;12597325;28;20079;-41
2021/07/22 17:30:02;;;;;;;8.65;6.43;;;23.40;99.90;;;;;;12589239;28;20041;-41
2021/07/22 17:36:04;;;;;;;8.05;5.80;;;23.00;99.90;;;;;;12594280;28;20842;-42
2021/07/22 17:42:07;;;;;;;8.70;5.80;;;22.90;99.90;;;;;;12590301;28;20132;-41
2021/07/22 17:48:09;;;;;;;8.57;5.10;;;23.20;99.90;;;;;;12596856;28;20484;-41
2021/07/22 17:54:13;;;;;;;7.53;5.30;;;23.50;99.90;;;;;;12592439;28;20044;-41
2021/07/22 18:00:15;;;;;;;9.23;5.35;;;23.90;99.90;;;;;;12595648;28;20660;-40
2021/07/22 18:06:17;;;;;;;7.35;5.03;;;23.90;99.90;;;;;;12600314;28;20051;-41
2021/07/22 18:12:19;;;;;;;8.93;5.47;;;23.70;99.90;;;;;;12596117;28;20044;-41
2021/07/22 18:18:21;;;;;;;8.63;5.05;;;23.30;99.90;;;;;;12593116;28;20048;-40
2021/07/22 18:24:32;;;;;;;8.00;4.78;;;22.80;99.90;;;;;;12594288;28;20110;-41
2021/07/22 18:30:35;;;;;;;8.77;5.50;;;22.30;99.90;;;;;;12594402;28;20048;-41
2021/07/22 18:37:07;;;;;;;9.88;5.68;;;21.90;99.90;;;;;;12593710;28;20539;-41
2021/07/22 18:43:09;;;;;;;6.88;5.03;;;21.70;99.90;;;;;;12586138;28;20052;-41
2021/07/22 18:49:11;;;;;;;7.75;5.30;;;21.50;99.90;;;;;;12595514;28;20052;-41
2021/07/22 18:55:13;;;;;;;8.55;5.13;;;21.30;99.90;;;;;;12592088;28;20454;-40
2021/07/22 19:01:15;;;;;;;6.93;4.90;;;21.10;99.90;;;;;;12591139;28;20154;-40
2021/07/22 19:07:17;;;;;;;7.22;5.05;;;20.90;99.90;;;;;;12596757;28;20051;-41
2021/07/22 19:13:21;;;;;;;8.57;5.00;;;20.90;99.90;;;;;;12593026;28;20044;-40
2021/07/22 19:19:22;;;;;;;7.53;4.67;;;20.80;99.90;;;;;;12589905;28;20480;-41
2021/07/22 19:25:24;;;;;;;12.75;4.90;;;20.70;99.90;;;;;;12591834;28;20056;-40
2021/07/22 19:31:26;;;;;;;9.98;5.22;;;20.60;99.90;;;;;;12592378;28;20100;-44
2021/07/22 19:37:28;;;;;;;7.00;4.70;;;20.50;99.90;;;;;;12598754;28;20086;-41
2021/07/22 19:43:30;;;;;;;5.32;4.53;;;20.30;99.90;;;;;;12589420;28;20051;-40
2021/07/22 19:49:32;;;;;;;8.95;5.70;;;20.20;99.90;;;;;;12592891;28;20051;-41
2021/07/22 19:55:33;;;;;;;8.85;5.30;;;20.00;99.90;;;;;;12586740;28;20113;-41
2021/07/22 20:01:37;;;;;;;8.18;4.90;;;19.80;99.90;;;;;;12591026;28;20040;-41
2021/07/22 20:07:41;;;;;;;9.83;5.53;;;19.60;99.90;;;;;;12592156;28;20051;-40
2021/07/22 20:13:43;;;;;;;7.90;5.28;;;19.50;99.90;;;;;;12589066;28;20049;-41
2021/07/22 20:19:45;;;;;;;6.63;4.95;;;19.40;99.90;;;;;;12587852;28;20052;-42
2021/07/22 20:25:47;;;;;;;10.05;5.10;;;19.10;99.90;;;;;;12588649;28;20045;-40
2021/07/22 20:31:48;;;;;;;9.10;5.25;;;19.00;99.90;;;;;;12584985;28;20462;-40
2021/07/22 20:37:50;;;;;;;7.32;4.88;;;18.80;99.90;;;;;;12594064;28;20468;-41
2021/07/22 20:43:52;;;;;;;7.70;5.05;;;18.60;99.90;;;;;;12594004;28;20044;-41
2021/07/22 20:49:54;;;;;;;9.30;5.18;;;18.50;99.90;;;;;;12598819;28;20060;-41
2021/07/22 20:55:56;;;;;;;5.97;4.90;;;18.30;99.90;;;;;;12597686;28;20090;-41
2021/07/22 21:01:57;;;;;;;6.80;5.35;;;18.30;99.90;;;;;;12595559;28;20036;-40
2021/07/22 21:07:59;;;;;;;9.48;4.53;;;18.30;99.90;;;;;;12594756;28;20134;-41
2021/07/22 21:14:03;;;;;;;5.72;3.83;;;18.10;99.90;;;;;;12596942;28;20069;-40
2021/07/22 21:20:07;;;;;;;8.43;4.10;;;18.10;99.90;;;;;;12600446;28;20052;-40
2021/07/22 21:26:09;;;;;;;7.03;4.43;;;18.00;99.90;;;;;;12598683;28;20457;-42
2021/07/22 21:32:12;;;;;;;7.47;4.30;;;18.00;99.90;;;;;;12601189;28;20040;-41
2021/07/22 21:38:14;;;;;;;7.05;3.75;;;18.00;99.90;;;;;;12596228;28;20056;-40
2021/07/22 21:44:16;;;;;;;10.05;3.25;;;18.00;99.90;;;;;;12594267;28;20090;-40
2021/07/22 21:50:17;;;;;;;5.97;3.10;;;17.60;99.90;;;;;;12595902;28;20086;-40
2021/07/22 21:56:22;;;;;;;7.28;3.20;;;17.50;99.90;;;;;;12596827;28;20067;-41
2021/07/22 22:02:24;;;;;;;5.82;3.15;;;17.50;99.90;;;;;;12595105;28;20074;-40
2021/07/22 22:08:26;;;;;;;7.80;3.53;;;17.40;99.90;;;;;;12597390;28;20097;-39
2021/07/22 22:14:28;;;;;;;9.93;3.17;;;17.20;99.90;;;;;;12595589;28;20092;-40
2021/07/22 22:20:29;;;;;;;4.82;2.70;;;17.00;99.90;;;;;;12590710;28;20052;-40
2021/07/22 22:26:31;;;;;;;5.22;2.55;;;17.00;99.90;;;;;;12589715;28;20728;-40
2021/07/22 22:32:33;;;;;;;6.75;2.80;;;16.90;99.90;;;;;;12591729;28;20060;-41
2021/07/22 22:38:35;;;;;;;6.57;2.55;;;16.90;99.90;;;;;;12595023;28;20079;-40
2021/07/22 22:44:37;;;;;;;6.57;2.70;;;17.00;99.90;;;;;;12591596;28;20044;-42
2021/07/22 22:50:39;;;;;;;9.50;2.80;;;17.10;99.90;;;;;;12592639;28;20048;-40
2021/07/22 22:56:41;;;;;;;5.95;2.38;;;17.10;99.90;;;;;;12593443;28;20056;-42
2021/07/22 23:02:43;;;;;;;4.65;2.67;;;17.10;99.90;;;;;;12588673;28;20661;-40
2021/07/22 23:08:45;;;;;;;6.32;2.83;;;17.00;99.90;;;;;;12594517;28;20051;-42
2021/07/22 23:14:47;;;;;;;4.63;2.42;;;16.90;99.90;;;;;;12594918;28;20799;-40
2021/07/22 23:20:49;;;;;;;5.55;2.83;;;16.80;99.90;;;;;;12589937;28;20048;-39
2021/07/22 23:26:51;;;;;;;6.70;2.72;;;16.80;99.90;;;;;;12589487;28;20039;-40
2021/07/22 23:32:53;;;;;;;4.57;2.60;;;16.60;99.90;;;;;;12592452;28;20711;-39
2021/07/22 23:38:56;;;;;;;3.33;2.45;;;16.60;99.90;;;;;;12594632;28;20082;-40
2021/07/22 23:44:58;;;;;;;6.03;2.57;;;16.60;99.90;;;;;;12589500;28;20105;-41
2021/07/22 23:51:00;;;;;;;4.15;2.92;;;16.60;99.90;;;;;;12586440;28;20049;-42
2021/07/22 23:57:02;;;;;;;4.40;2.50;;;16.50;99.90;;;;;;12590425;28;20048;-40
